Time;durP1;ratioP1;P1;durP2;ratioP2;P2;SDS_P1;SDS_P2;PMS_P1;PMS_P2;Temp;Humidity;BMP_temperature;BMP_pressure;BME280_temperature;BME280_humidity;BME280_pressure;Samples;Min_cycle;Max_cycle;Signal;HPM_P1;HPM_P2
2022/06/05 00:01:21;;;;;;;7.68;6.03;;;18.40;99.90;;;;;;5058493;28;20060;-76
2022/06/05 00:04:00;;;;;;;7.03;6.07;;;18.40;99.90;;;;;;5056184;28;20036;-76
2022/06/05 00:06:58;;;;;;;7.10;6.50;;;18.40;99.90;;;;;;5053048;28;20025;-77
2022/06/05 00:09:45;;;;;;;8.07;6.53;;;18.40;99.90;;;;;;5033893;28;20036;-76
2022/06/05 00:12:14;;;;;;;6.75;6.13;;;18.40;99.90;;;;;;5055472;28;20074;-75
2022/06/05 00:14:41;;;;;;;8.15;6.70;;;18.40;99.90;;;;;;5055287;28;20049;-76
2022/06/05 00:17:10;;;;;;;6.85;6.22;;;18.30;99.90;;;;;;5057379;28;20032;-81
2022/06/05 00:19:40;;;;;;;6.82;6.20;;;18.30;99.90;;;;;;5059500;28;20023;-75
2022/06/05 00:22:06;;;;;;;7.25;6.57;;;18.30;99.90;;;;;;5051419;28;20032;-75
2022/06/05 00:24:33;;;;;;;11.15;8.93;;;18.30;99.90;;;;;;5059729;28;20058;-76
2022/06/05 00:27:18;;;;;;;12.93;10.02;;;18.30;99.90;;;;;;5067241;28;20111;-76
2022/06/05 00:29:50;;;;;;;17.50;13.85;;;18.20;99.90;;;;;;5071558;28;20044;-76
2022/06/05 00:32:47;;;;;;;13.55;11.05;;;18.20;99.90;;;;;;5070041;28;20031;-81
2022/06/05 00:35:16;;;;;;;10.77;9.40;;;18.20;99.90;;;;;;5066553;28;20036;-75
2022/06/05 00:37:47;;;;;;;11.48;10.27;;;18.20;99.90;;;;;;5073359;28;20056;-78
2022/06/05 00:40:39;;;;;;;11.90;10.63;;;18.10;99.90;;;;;;5069023;28;20051;-75
2022/06/05 00:43:11;;;;;;;11.77;10.57;;;18.10;99.90;;;;;;5073111;28;20098;-76
2022/06/05 00:45:39;;;;;;;13.77;10.90;;;18.10;99.90;;;;;;5073011;28;20032;-75
2022/06/05 00:48:06;;;;;;;10.13;9.13;;;18.00;99.90;;;;;;5073640;28;20032;-76
2022/06/05 00:50:32;;;;;;;11.38;9.43;;;18.00;99.90;;;;;;5072870;28;20468;-76
2022/06/05 00:53:00;;;;;;;9.32;8.30;;;18.00;99.90;;;;;;5072986;28;20533;-75
2022/06/05 00:55:30;;;;;;;9.07;8.10;;;18.00;99.90;;;;;;5078867;28;20031;-76
2022/06/05 00:57:57;;;;;;;9.18;8.27;;;17.90;99.90;;;;;;5073120;28;20059;-75
2022/06/05 01:00:24;;;;;;;10.13;9.23;;;17.90;99.90;;;;;;5073573;28;20107;-76
2022/06/05 01:02:53;;;;;;;12.70;10.95;;;17.90;99.90;;;;;;5072861;28;20456;-76
2022/06/05 01:05:20;;;;;;;11.63;10.53;;;17.90;99.90;;;;;;5072935;28;20029;-82
2022/06/05 01:07:46;;;;;;;11.73;8.90;;;17.90;99.90;;;;;;5072525;28;20037;-75
2022/06/05 01:10:14;;;;;;;9.27;8.38;;;17.80;99.90;;;;;;5072942;28;20020;-75
2022/06/05 01:12:40;;;;;;;9.02;8.13;;;17.80;99.90;;;;;;5071994;28;20477;-75
2022/06/05 01:15:35;;;;;;;9.15;8.23;;;17.80;99.90;;;;;;5073521;28;20044;-76
2022/06/05 01:18:21;;;;;;;10.15;7.07;;;17.80;99.90;;;;;;5073041;28;20029;-75
2022/06/05 01:21:07;;;;;;;10.43;7.22;;;17.70;99.90;;;;;;5068072;28;20020;-75
2022/06/05 01:23:42;;;;;;;9.90;7.55;;;17.70;99.90;;;;;;5072210;28;20021;-75
2022/06/05 01:26:23;;;;;;;8.18;7.32;;;17.70;99.90;;;;;;5058150;28;20024;-76
2022/06/05 01:29:04;;;;;;;8.23;7.43;;;17.70;99.90;;;;;;5051605;28;20061;-76
2022/06/05 01:31:39;;;;;;;8.25;7.55;;;17.70;99.90;;;;;;5050114;28;20032;-77
2022/06/05 01:34:26;;;;;;;9.30;8.40;;;17.70;99.90;;;;;;5060357;28;20102;-75
2022/06/05 01:37:05;;;;;;;7.80;7.10;;;17.70;99.90;;;;;;5053303;28;20025;-76
2022/06/05 01:39:44;;;;;;;8.32;7.57;;;17.70;99.90;;;;;;5057744;28;20976;-76
2022/06/05 01:42:19;;;;;;;10.10;7.75;;;17.60;99.90;;;;;;5055438;28;20162;-75
2022/06/05 01:44:48;;;;;;;8.07;7.35;;;17.60;99.90;;;;;;5055968;28;20056;-77
2022/06/05 01:47:20;;;;;;;9.18;8.10;;;17.60;99.90;;;;;;5061509;28;20052;-75
2022/06/05 01:50:00;;;;;;;8.45;7.57;;;17.60;99.90;;;;;;5061989;28;20077;-76
2022/06/05 01:52:38;;;;;;;8.15;7.20;;;17.60;99.90;;;;;;5071582;28;20036;-76
2022/06/05 01:55:10;;;;;;;8.10;7.40;;;17.60;99.90;;;;;;5063969;28;20041;-76
2022/06/05 01:57:36;;;;;;;7.68;6.93;;;17.60;99.90;;;;;;5070402;28;20097;-77
2022/06/05 02:00:15;;;;;;;7.75;7.15;;;17.60;99.90;;;;;;5044524;28;20029;-76
2022/06/05 02:03:00;;;;;;;7.75;7.05;;;17.60;99.90;;;;;;5060037;28;20103;-77
2022/06/05 02:05:52;;;;;;;7.28;6.68;;;17.60;99.90;;;;;;5054959;28;20037;-76
2022/06/05 02:08:34;;;;;;;9.30;8.40;;;17.60;99.90;;;;;;5060552;28;20118;-76
2022/06/05 02:11:07;;;;;;;9.35;7.95;;;17.60;99.90;;;;;;5058303;28;20024;-75
2022/06/05 02:13:32;;;;;;;9.55;8.15;;;17.60;99.90;;;;;;5065516;28;20127;-75
2022/06/05 02:15:58;;;;;;;7.82;7.10;;;17.50;99.90;;;;;;5054112;28;20430;-76
2022/06/05 02:18:23;;;;;;;8.40;7.50;;;17.60;99.90;;;;;;5070575;28;20557;-81
2022/06/05 02:20:50;;;;;;;8.70;7.90;;;17.60;99.90;;;;;;5062727;28;20052;-75
2022/06/05 02:23:21;;;;;;;8.80;7.93;;;17.60;99.90;;;;;;5068022;28;20028;-76
2022/06/05 02:25:47;;;;;;;9.95;8.55;;;17.60;99.90;;;;;;5071149;28;20020;-76
2022/06/05 02:28:14;;;;;;;9.07;8.30;;;17.60;99.90;;;;;;5071575;28;20402;-75
2022/06/05 02:30:53;;;;;;;9.70;8.80;;;17.50;99.90;;;;;;5070987;28;20028;-75
2022/06/05 02:33:37;;;;;;;10.40;9.40;;;17.60;99.90;;;;;;5072139;28;20036;-76
2022/06/05 02:36:29;;;;;;;11.73;9.52;;;17.60;99.90;;;;;;5071795;28;20024;-75
2022/06/05 02:39:09;;;;;;;10.85;9.82;;;17.70;99.90;;;;;;5071537;28;20047;-76
2022/06/05 02:41:48;;;;;;;12.70;9.57;;;17.80;99.90;;;;;;5070805;28;20021;-75
2022/06/05 02:44:39;;;;;;;15.48;9.90;;;17.90;99.90;;;;;;5068466;28;20059;-74
2022/06/05 02:47:24;;;;;;;9.52;8.52;;;17.90;99.90;;;;;;5057408;28;20150;-76
2022/06/05 02:50:10;;;;;;;9.80;8.80;;;17.80;99.90;;;;;;5049971;28;20017;-75
2022/06/05 02:52:37;;;;;;;12.43;9.55;;;17.70;99.90;;;;;;5049613;28;20474;-76
2022/06/05 02:55:08;;;;;;;9.50;8.60;;;17.70;99.90;;;;;;5052162;28;20044;-76
2022/06/05 02:57:34;;;;;;;10.10;9.13;;;17.70;99.90;;;;;;5052578;28;20033;-76
2022/06/05 03:00:01;;;;;;;9.18;8.38;;;17.60;99.90;;;;;;5051699;28;22394;-75
2022/06/05 03:05:13;;;;;;;10.80;9.55;;;17.60;99.90;;;;;;5051431;28;20421;-75
2022/06/05 03:07:39;;;;;;;9.57;8.77;;;17.60;99.90;;;;;;5064631;28;20117;-76
2022/06/05 03:10:05;;;;;;;10.20;9.20;;;17.60;99.90;;;;;;5051854;28;20040;-77
2022/06/05 03:12:30;;;;;;;10.20;9.20;;;17.60;99.90;;;;;;5069840;28;20035;-77
2022/06/05 03:15:01;;;;;;;9.88;8.85;;;17.60;99.90;;;;;;5070689;28;20107;-76
2022/06/05 03:17:27;;;;;;;;;;;17.60;99.90;;;;;;5071036;28;20020;-83
2022/06/05 03:19:52;;;;;;;10.05;9.15;;;17.60;99.90;;;;;;5070766;28;19950;-77
2022/06/05 03:22:18;;;;;;;9.20;8.30;;;17.60;99.90;;;;;;5067759;28;20052;-77
2022/06/05 03:24:44;;;;;;;11.07;8.98;;;17.60;99.90;;;;;;5060136;28;20810;-76
2022/06/05 03:27:09;;;;;;;10.65;9.20;;;17.70;99.90;;;;;;5070257;28;20035;-76
2022/06/05 03:29:35;;;;;;;9.75;8.23;;;17.70;99.90;;;;;;5069482;28;20547;-75
2022/06/05 03:32:01;;;;;;;9.68;8.75;;;17.70;99.90;;;;;;5070529;28;20024;-75
2022/06/05 03:34:26;;;;;;;9.68;8.48;;;17.70;99.90;;;;;;5071089;28;20039;-82
2022/06/05 03:36:52;;;;;;;9.73;8.75;;;17.70;99.90;;;;;;5070899;28;20035;-76
2022/06/05 03:39:17;;;;;;;10.48;8.95;;;17.70;99.90;;;;;;5070887;28;20471;-75
2022/06/05 03:41:43;;;;;;;8.65;7.85;;;17.70;99.90;;;;;;5069820;28;20116;-76
2022/06/05 03:44:10;;;;;;;9.00;8.20;;;17.70;99.90;;;;;;5070268;28;20040;-77
2022/06/05 03:46:38;;;;;;;11.02;8.15;;;17.60;99.90;;;;;;5070054;28;20111;-76
2022/06/05 03:49:04;;;;;;;8.48;7.68;;;17.60;99.90;;;;;;5068778;28;20025;-76
2022/06/05 03:51:29;;;;;;;8.18;7.38;;;17.70;99.90;;;;;;5069540;28;20375;-83
2022/06/05 03:53:55;;;;;;;8.98;8.05;;;17.70;99.90;;;;;;5077458;28;20079;-75
2022/06/05 03:56:23;;;;;;;9.65;8.70;;;17.70;99.90;;;;;;5070859;28;20025;-75
2022/06/05 03:58:50;;;;;;;11.52;9.45;;;17.70;99.90;;;;;;5063753;28;20104;-75
2022/06/05 04:01:18;;;;;;;11.85;8.57;;;17.80;99.90;;;;;;5069551;28;20103;-77
2022/06/05 04:03:44;;;;;;;10.00;8.73;;;17.90;99.90;;;;;;5069814;28;20174;-76
2022/06/05 04:06:12;;;;;;;10.57;9.45;;;18.10;99.90;;;;;;5058385;28;20021;-77
2022/06/05 04:08:39;;;;;;;12.52;10.10;;;18.10;99.90;;;;;;5056301;28;20035;-76
2022/06/05 04:11:05;;;;;;;12.20;10.18;;;18.10;99.90;;;;;;5061298;28;20029;-76
2022/06/05 04:13:31;;;;;;;11.45;10.00;;;18.10;99.90;;;;;;5050831;28;20066;-81
2022/06/05 04:15:56;;;;;;;11.07;9.98;;;18.00;99.90;;;;;;5051523;28;20029;-76
2022/06/05 04:18:22;;;;;;;11.88;10.48;;;18.00;99.90;;;;;;5054239;28;20029;-75
2022/06/05 04:20:48;;;;;;;10.55;9.55;;;17.90;99.90;;;;;;5055704;28;20155;-78
2022/06/05 04:23:13;;;;;;;13.75;10.30;;;17.90;99.90;;;;;;5055667;28;20154;-76
2022/06/05 04:25:42;;;;;;;11.40;10.20;;;17.80;99.90;;;;;;5057528;28;20044;-83
2022/06/05 04:28:08;;;;;;;11.38;10.30;;;17.80;99.90;;;;;;5066152;28;20056;-82
2022/06/05 04:30:39;;;;;;;11.18;10.05;;;17.80;99.90;;;;;;5093373;28;20031;-85
2022/06/05 04:33:05;;;;;;;;;;;17.70;99.90;;;;;;5091196;28;20100;-77
2022/06/05 04:35:31;;;;;;;12.60;11.00;;;17.70;99.90;;;;;;5094935;28;20370;-89
2022/06/05 04:37:57;;;;;;;13.93;12.40;;;17.60;99.90;;;;;;5092080;28;20009;-77
2022/06/05 04:40:22;;;;;;;12.65;11.45;;;17.60;99.90;;;;;;5095977;28;20084;-77
2022/06/05 04:42:48;;;;;;;13.32;12.02;;;17.50;99.90;;;;;;5095931;28;20024;-77
2022/06/05 04:45:14;;;;;;;13.98;12.57;;;17.50;99.90;;;;;;5098779;28;20028;-77
2022/06/05 04:47:40;;;;;;;13.90;12.50;;;17.40;99.90;;;;;;5089963;28;20029;-75
2022/06/05 04:50:07;;;;;;;11.23;10.23;;;17.40;99.90;;;;;;5075897;28;20029;-76
2022/06/05 04:52:33;;;;;;;13.93;12.30;;;17.40;99.90;;;;;;5075566;28;20032;-80
2022/06/05 04:54:59;;;;;;;13.88;12.57;;;17.30;99.90;;;;;;5076796;28;20103;-78
2022/06/05 04:57:25;;;;;;;13.15;11.95;;;17.40;99.90;;;;;;5076739;28;20040;-78
2022/06/05 04:59:50;;;;;;;13.88;12.60;;;17.30;99.90;;;;;;5058810;28;20070;-79
2022/06/05 05:02:17;;;;;;;13.93;12.63;;;17.30;99.90;;;;;;5076226;28;20020;-80
2022/06/05 05:04:47;;;;;;;14.02;12.77;;;17.30;99.90;;;;;;5075656;28;20039;-76
2022/06/05 05:07:16;;;;;;;13.77;12.43;;;17.30;99.90;;;;;;5075094;28;20017;-78
2022/06/05 05:09:43;;;;;;;13.98;12.75;;;17.30;99.90;;;;;;5075082;28;20043;-79
2022/06/05 05:12:12;;;;;;;15.75;14.15;;;17.30;99.90;;;;;;5074429;28;20035;-84
2022/06/05 05:14:39;;;;;;;16.88;15.18;;;17.30;99.90;;;;;;5067400;28;20437;-78
2022/06/05 05:17:05;;;;;;;16.08;14.57;;;17.20;99.90;;;;;;5074113;28;20029;-78
2022/06/05 05:19:31;;;;;;;17.42;14.10;;;17.20;99.90;;;;;;5074396;28;20025;-83
2022/06/05 05:21:57;;;;;;;16.92;15.13;;;17.10;99.90;;;;;;5068468;28;20039;-80
2022/06/05 05:24:23;;;;;;;18.02;15.82;;;17.10;99.90;;;;;;5073376;28;20393;-79
2022/06/05 05:26:48;;;;;;;17.02;15.05;;;17.00;99.90;;;;;;5054732;28;20106;-81
2022/06/05 05:29:14;;;;;;;17.83;16.02;;;17.00;99.90;;;;;;5063106;28;20048;-78
2022/06/05 05:31:41;;;;;;;19.17;17.13;;;17.00;99.90;;;;;;5060941;28;20138;-80
2022/06/05 05:34:08;;;;;;;19.60;17.60;;;16.90;99.90;;;;;;5043799;28;20044;-78
2022/06/05 05:36:34;;;;;;;18.52;16.73;;;16.90;99.90;;;;;;5064151;28;20190;-81
2022/06/05 05:44:41;;;;;;;19.83;18.02;;;16.80;99.90;;;;;;5061508;28;20032;-78
2022/06/05 05:47:13;;;;;;;22.52;19.95;;;16.70;99.90;;;;;;5060767;28;20024;-80
2022/06/05 05:49:39;;;;;;;22.83;20.42;;;16.70;99.90;;;;;;5061457;28;20024;-81
2022/06/05 05:52:06;;;;;;;24.77;22.17;;;16.70;99.90;;;;;;5065081;28;20041;-75
2022/06/05 05:54:33;;;;;;;26.98;23.85;;;16.70;99.90;;;;;;5064737;28;20045;-76
2022/06/05 05:56:58;;;;;;;24.33;21.95;;;16.70;99.90;;;;;;5068838;28;20029;-76
2022/06/05 05:59:24;;;;;;;23.85;21.33;;;16.70;99.90;;;;;;5070476;28;20519;-78
2022/06/05 06:01:51;;;;;;;24.63;21.90;;;16.70;99.90;;;;;;5042715;28;20389;-77
2022/06/05 06:04:17;;;;;;;24.15;21.40;;;16.70;99.90;;;;;;5073331;28;20075;-80
2022/06/05 06:06:45;;;;;;;30.10;22.02;;;16.70;99.90;;;;;;5054535;28;20056;-79
2022/06/05 06:09:11;;;;;;;22.23;20.00;;;16.70;99.90;;;;;;5071345;28;20461;-80
2022/06/05 06:11:37;;;;;;;20.83;18.13;;;16.80;99.90;;;;;;5072362;28;20024;-82
2022/06/05 06:14:03;;;;;;;18.23;16.30;;;16.80;99.90;;;;;;5073182;28;20372;-79
2022/06/05 06:16:29;;;;;;;18.15;16.17;;;16.80;99.90;;;;;;5072189;28;20025;-79
2022/06/05 06:18:55;;;;;;;14.80;13.23;;;16.80;99.90;;;;;;5072086;28;20036;-83
2022/06/05 06:21:22;;;;;;;18.42;14.38;;;16.90;99.90;;;;;;5073053;28;20448;-80
2022/06/05 06:23:47;;;;;;;16.98;13.73;;;16.80;99.90;;;;;;5070708;28;20033;-79
2022/06/05 06:26:13;;;;;;;18.33;15.13;;;16.80;99.90;;;;;;5070065;28;20359;-79
2022/06/05 06:28:39;;;;;;;17.27;14.50;;;16.70;99.90;;;;;;5063085;28;20061;-85
2022/06/05 06:31:06;;;;;;;19.33;14.18;;;16.70;99.90;;;;;;5063870;28;20456;-78
2022/06/05 06:33:32;;;;;;;15.40;13.80;;;16.60;99.90;;;;;;5067069;28;20040;-79
2022/06/05 06:36:03;;;;;;;15.88;14.02;;;16.60;99.90;;;;;;5063651;28;20055;-79
2022/06/05 06:38:29;;;;;;;17.42;12.63;;;16.60;99.90;;;;;;5065478;28;20033;-79
2022/06/05 06:41:04;;;;;;;21.33;12.02;;;16.70;99.90;;;;;;5071406;28;20119;-80
2022/06/05 06:43:31;;;;;;;14.88;11.00;;;16.60;99.90;;;;;;5067203;28;20024;-78
2022/06/05 06:45:56;;;;;;;13.23;9.85;;;16.60;99.90;;;;;;5072082;28;20109;-78
2022/06/05 06:48:22;;;;;;;8.50;6.10;;;16.70;99.90;;;;;;5071418;28;20412;-77
2022/06/05 06:50:48;;;;;;;11.25;6.85;;;16.70;99.90;;;;;;5052945;28;20028;-78
2022/06/05 06:53:13;;;;;;;8.95;6.53;;;16.80;99.90;;;;;;5059516;28;20032;-78
2022/06/05 06:55:39;;;;;;;7.47;6.05;;;16.80;99.90;;;;;;5057243;28;20033;-83
2022/06/05 06:58:05;;;;;;;10.07;5.63;;;16.70;99.90;;;;;;5064216;28;20033;-80
2022/06/05 07:00:30;;;;;;;8.85;5.93;;;16.60;99.90;;;;;;5056192;28;20111;-80
2022/06/05 07:02:56;;;;;;;7.82;5.13;;;16.50;99.90;;;;;;5064711;28;20124;-79
2022/06/05 07:05:22;;;;;;;5.60;4.03;;;16.50;99.90;;;;;;5049356;28;20021;-78
2022/06/05 07:07:47;;;;;;;9.45;5.05;;;16.50;99.90;;;;;;5054956;28;20021;-77
2022/06/05 07:10:14;;;;;;;7.82;4.70;;;16.50;99.90;;;;;;5054475;28;20051;-77
2022/06/05 07:12:40;;;;;;;10.30;5.15;;;16.50;99.90;;;;;;5054407;28;20151;-83
2022/06/05 07:15:07;;;;;;;5.80;3.83;;;16.50;99.90;;;;;;5062023;28;20479;-77
2022/06/05 07:17:33;;;;;;;8.65;4.38;;;16.50;99.90;;;;;;5053896;28;20059;-78
2022/06/05 07:19:59;;;;;;;6.30;3.97;;;16.60;99.90;;;;;;5060614;28;20588;-77
2022/06/05 07:22:25;;;;;;;4.38;3.55;;;16.60;99.90;;;;;;5065365;28;20075;-77
2022/06/05 07:24:51;;;;;;;5.00;4.50;;;16.60;99.90;;;;;;5071163;28;20040;-80
2022/06/05 07:27:17;;;;;;;9.77;6.30;;;16.60;99.90;;;;;;5071177;28;20032;-77
2022/06/05 07:29:43;;;;;;;6.47;5.57;;;16.60;99.90;;;;;;5062675;28;20052;-84
2022/06/05 07:32:09;;;;;;;8.05;5.57;;;16.70;99.90;;;;;;5071043;28;20047;-78
2022/06/05 07:34:35;;;;;;;9.40;6.32;;;16.70;99.90;;;;;;5071627;28;20033;-77
2022/06/05 07:37:01;;;;;;;10.60;6.30;;;16.60;99.90;;;;;;5071828;28;20024;-77
2022/06/05 07:39:29;;;;;;;6.55;5.07;;;16.60;99.90;;;;;;5072591;28;20024;-77
2022/06/05 07:41:58;;;;;;;8.43;6.35;;;16.50;99.90;;;;;;5054188;28;20031;-78
2022/06/05 07:44:25;;;;;;;10.70;5.00;;;16.50;99.90;;;;;;5072463;28;20024;-77
2022/06/05 07:46:51;;;;;;;7.97;5.47;;;16.50;99.90;;;;;;5071976;28;20034;-76
2022/06/05 07:49:16;;;;;;;10.85;5.72;;;16.50;99.90;;;;;;5072595;28;20021;-76
2022/06/05 07:54:27;;;;;;;5.90;5.40;;;16.50;99.90;;;;;;5071916;28;20054;-78
2022/06/05 07:57:18;;;;;;;6.85;4.93;;;16.60;99.90;;;;;;5070709;28;20033;-77
2022/06/05 07:59:47;;;;;;;5.35;4.65;;;16.60;99.90;;;;;;5066879;28;20077;-81
2022/06/05 08:02:14;;;;;;;6.22;4.75;;;16.60;99.90;;;;;;5070144;28;20483;-76
2022/06/05 08:04:42;;;;;;;9.15;4.68;;;16.60;99.90;;;;;;5071089;28;20040;-75
2022/06/05 08:07:10;;;;;;;6.47;4.10;;;16.70;99.90;;;;;;5069803;28;20032;-76
2022/06/05 08:09:36;;;;;;;5.65;3.92;;;16.80;99.90;;;;;;5066042;28;20089;-75
2022/06/05 08:12:03;;;;;;;7.38;3.75;;;16.90;99.90;;;;;;5069632;28;20264;-75
2022/06/05 08:14:34;;;;;;;4.35;3.95;;;17.00;99.90;;;;;;5069886;28;20094;-75
2022/06/05 08:17:01;;;;;;;9.70;3.92;;;17.10;99.90;;;;;;5068030;28;20452;-76
2022/06/05 08:19:26;;;;;;;3.65;3.35;;;17.20;99.90;;;;;;5073954;28;20074;-75
2022/06/05 08:21:53;;;;;;;7.50;3.70;;;17.30;99.90;;;;;;5059038;28;20096;-76
2022/06/05 08:24:18;;;;;;;5.55;3.53;;;17.40;99.90;;;;;;5044590;28;20029;-75
2022/06/05 08:26:45;;;;;;;4.43;2.88;;;17.50;99.90;;;;;;5059938;28;20035;-78
2022/06/05 08:29:11;;;;;;;3.38;2.50;;;17.60;99.90;;;;;;5062307;28;20045;-77
2022/06/05 08:31:37;;;;;;;6.53;2.92;;;17.80;99.90;;;;;;5056493;28;20035;-78
2022/06/05 08:34:04;;;;;;;5.80;2.53;;;18.00;99.90;;;;;;5058820;28;20628;-74
2022/06/05 08:36:30;;;;;;;4.53;2.45;;;18.20;99.90;;;;;;5065217;28;20035;-75
2022/06/05 08:42:18;;;;;;;4.55;2.00;;;18.50;99.90;;;;;;5058258;28;20432;-78
2022/06/05 08:44:57;;;;;;;3.40;1.95;;;18.80;99.90;;;;;;5059758;28;20086;-78
2022/06/05 08:47:35;;;;;;;2.70;2.13;;;18.90;99.90;;;;;;5071070;28;20024;-77
2022/06/05 08:50:04;;;;;;;4.72;2.03;;;19.10;99.90;;;;;;5063237;28;20028;-75
2022/06/05 08:52:55;;;;;;;3.75;1.73;;;19.30;99.90;;;;;;5071341;28;20021;-75
2022/06/05 08:55:46;;;;;;;2.90;2.03;;;19.40;99.90;;;;;;5073269;28;20059;-75
2022/06/05 08:58:29;;;;;;;3.40;2.30;;;19.50;99.90;;;;;;5073002;28;20028;-75
2022/06/05 09:00:55;;;;;;;3.90;1.75;;;19.70;99.90;;;;;;5073167;28;20088;-75
2022/06/05 09:03:30;;;;;;;5.88;2.05;;;19.90;99.90;;;;;;5073455;28;20016;-75
2022/06/05 09:06:05;;;;;;;4.57;1.67;;;20.20;99.90;;;;;;5054375;28;20020;-75
2022/06/05 09:08:38;;;;;;;3.63;1.58;;;20.40;99.90;;;;;;5072464;28;20108;-75
2022/06/05 09:11:10;;;;;;;2.55;1.70;;;20.60;99.90;;;;;;5073211;28;20112;-75
2022/06/05 09:13:43;;;;;;;6.45;2.10;;;20.70;99.90;;;;;;5072525;28;20141;-76
2022/06/05 09:16:30;;;;;;;1.83;1.30;;;20.90;99.90;;;;;;5073023;28;20039;-75
2022/06/05 09:18:57;;;;;;;2.08;1.70;;;20.90;99.90;;;;;;5072317;28;20033;-76
2022/06/05 09:21:31;;;;;;;3.67;1.40;;;21.10;99.90;;;;;;5071869;28;20078;-76
2022/06/05 09:24:16;;;;;;;4.63;1.50;;;21.10;99.90;;;;;;5071806;28;20458;-75
2022/06/05 09:26:44;;;;;;;2.35;1.45;;;21.20;99.90;;;;;;5073219;28;20074;-75
2022/06/05 09:29:28;;;;;;;4.47;1.55;;;21.30;99.90;;;;;;5071217;28;20048;-75
2022/06/05 09:32:21;;;;;;;4.72;1.27;;;21.40;99.90;;;;;;5068242;28;20036;-76
2022/06/05 09:34:54;;;;;;;1.85;1.17;;;21.40;99.90;;;;;;5064869;28;20047;-78
2022/06/05 09:37:53;;;;;;;3.20;1.52;;;21.60;99.90;;;;;;5047917;28;20030;-76
2022/06/05 09:40:28;;;;;;;4.50;1.58;;;21.70;99.90;;;;;;5065555;28;20112;-76
2022/06/05 09:43:15;;;;;;;4.72;1.33;;;21.90;99.90;;;;;;5071527;28;20489;-75
2022/06/05 09:46:18;;;;;;;2.75;1.40;;;22.00;99.90;;;;;;5060356;28;20021;-78
2022/06/05 09:48:46;;;;;;;2.63;1.20;;;22.10;99.90;;;;;;5051313;28;20433;-77
2022/06/05 09:51:15;;;;;;;4.18;1.23;;;22.20;99.90;;;;;;5052335;28;20028;-77
2022/06/05 09:54:10;;;;;;;3.15;1.45;;;22.10;99.90;;;;;;5056319;28;20044;-78
2022/06/05 09:59:55;;;;;;;4.43;1.38;;;22.30;99.90;;;;;;5049626;28;20036;-76
2022/06/05 10:02:22;;;;;;;2.70;1.02;;;22.50;99.90;;;;;;5053249;28;20031;-75
2022/06/05 10:04:50;;;;;;;4.40;1.33;;;22.60;99.90;;;;;;5056566;28;20489;-78
2022/06/05 10:07:29;;;;;;;2.53;1.00;;;22.80;99.90;;;;;;5065576;28;20032;-75
2022/06/05 10:09:55;;;;;;;3.28;1.40;;;22.90;99.90;;;;;;5067550;28;20127;-75
2022/06/05 10:12:30;;;;;;;2.90;1.42;;;23.20;99.90;;;;;;5067421;28;20021;-75
2022/06/05 10:15:05;;;;;;;2.30;1.08;;;23.40;99.90;;;;;;5071277;28;20089;-75
2022/06/05 10:17:47;;;;;;;3.10;1.10;;;23.60;99.90;;;;;;5066255;28;20035;-75
2022/06/05 10:20:13;;;;;;;4.07;1.50;;;23.70;99.90;;;;;;5071066;28;20116;-73
2022/06/05 10:22:39;;;;;;;1.52;1.08;;;23.80;99.90;;;;;;5072723;28;20466;-74
2022/06/05 10:25:37;;;;;;;3.55;1.58;;;24.00;99.90;;;;;;5063619;28;20355;-74
2022/06/05 10:28:18;;;;;;;2.42;1.30;;;24.00;99.90;;;;;;5064480;28;20052;-73
2022/06/05 10:31:06;;;;;;;3.50;1.55;;;24.00;99.90;;;;;;5071258;28;20032;-74
2022/06/05 10:33:31;;;;;;;3.03;1.13;;;23.90;99.90;;;;;;5070967;28;20028;-74
2022/06/05 10:36:15;;;;;;;2.17;1.50;;;23.80;99.90;;;;;;5071104;28;20086;-77
2022/06/05 10:39:00;;;;;;;3.72;2.05;;;23.70;99.90;;;;;;5070593;28;20110;-77
2022/06/05 10:41:40;;;;;;;5.40;1.75;;;23.50;99.90;;;;;;5070537;28;20166;-75
2022/06/05 10:44:34;;;;;;;6.40;2.40;;;23.20;99.90;;;;;;5070925;28;20032;-76
2022/06/05 10:47:20;;;;;;;5.80;1.90;;;22.90;99.90;;;;;;5066489;28;20420;-75
2022/06/05 10:49:49;;;;;;;8.65;3.33;;;22.60;99.90;;;;;;5068610;28;20036;-77
2022/06/05 10:52:39;;;;;;;6.60;2.83;;;22.30;99.90;;;;;;5057968;28;20100;-76
2022/06/05 10:55:17;;;;;;;10.38;3.35;;;21.90;99.90;;;;;;5064563;28;20452;-75
2022/06/05 10:57:58;;;;;;;6.97;3.33;;;21.60;99.90;;;;;;5056312;28;20035;-77
2022/06/05 11:01:00;;;;;;;8.20;3.38;;;21.10;99.90;;;;;;5070659;28;20035;-69
2022/06/05 11:03:56;;;;;;;7.90;3.22;;;20.70;99.90;;;;;;5065647;28;20029;-69
2022/06/05 11:06:34;;;;;;;6.70;3.75;;;20.40;99.90;;;;;;5059467;28;20017;-70
2022/06/05 11:09:42;;;;;;;5.97;3.80;;;20.10;99.90;;;;;;5050919;28;20119;-70
2022/06/05 11:15:29;;;;;;;11.32;4.68;;;19.90;99.90;;;;;;5011527;28;20478;-75
2022/06/05 11:18:11;;;;;;;7.32;4.22;;;19.80;99.90;;;;;;5049211;28;20033;-75
2022/06/05 11:20:40;;;;;;;7.07;3.72;;;19.80;99.90;;;;;;5056406;28;20036;-72
2022/06/05 11:23:16;;;;;;;7.00;3.85;;;19.80;99.90;;;;;;5052531;28;20033;-71
2022/06/05 11:26:21;;;;;;;6.10;4.20;;;19.80;99.90;;;;;;5043652;28;20079;-74
2022/06/05 11:29:25;;;;;;;7.78;3.83;;;19.80;99.90;;;;;;5053047;28;20084;-69
2022/06/05 11:32:00;;;;;;;7.65;3.33;;;19.70;99.90;;;;;;5058353;28;20032;-72
2022/06/05 11:34:45;;;;;;;6.47;3.50;;;19.70;99.90;;;;;;5062646;28;20039;-70
2022/06/05 11:37:38;;;;;;;4.47;3.30;;;19.60;99.90;;;;;;5065703;28;20024;-70
2022/06/05 11:40:12;;;;;;;6.38;3.10;;;19.70;99.90;;;;;;5068579;28;20036;-71
2022/06/05 11:42:40;;;;;;;8.98;4.40;;;19.70;99.90;;;;;;5070721;28;20032;-71
2022/06/05 11:45:31;;;;;;;9.27;3.63;;;19.70;99.90;;;;;;5069179;28;20107;-69
2022/06/05 11:48:13;;;;;;;6.43;3.30;;;19.90;99.90;;;;;;5051584;28;21096;-74
2022/06/05 11:50:43;;;;;;;6.70;3.33;;;20.00;99.90;;;;;;5068468;28;20462;-73
2022/06/05 11:53:36;;;;;;;3.97;2.65;;;20.30;99.90;;;;;;5073153;28;20024;-83
2022/06/05 11:56:33;;;;;;;4.45;2.70;;;20.80;99.90;;;;;;5073428;28;20561;-82
2022/06/05 11:59:27;;;;;;;6.40;2.97;;;21.40;99.90;;;;;;5049411;28;20438;-80
2022/06/05 12:02:13;;;;;;;5.15;3.33;;;22.00;99.90;;;;;;5074565;28;20036;-70
2022/06/05 12:04:44;;;;;;;7.00;3.17;;;22.70;99.90;;;;;;5074624;28;20052;-70
2022/06/05 12:07:14;;;;;;;5.55;2.13;;;23.40;99.90;;;;;;5072880;28;20035;-71
2022/06/05 12:09:50;;;;;;;10.10;2.60;;;23.90;99.90;;;;;;5073564;28;20032;-70
2022/06/05 12:12:47;;;;;;;9.20;2.28;;;24.10;99.90;;;;;;5072050;28;20103;-69
2022/06/05 12:15:29;;;;;;;5.95;2.40;;;24.40;99.90;;;;;;5065743;28;20527;-71
2022/06/05 12:18:08;;;;;;;4.97;1.70;;;24.90;99.90;;;;;;5068453;28;20029;-71
2022/06/05 12:20:41;;;;;;;4.07;2.00;;;25.30;99.90;;;;;;5070118;28;20020;-70
2022/06/05 12:23:34;;;;;;;6.95;2.10;;;25.60;99.90;;;;;;5072397;28;20044;-73
2022/06/05 12:26:01;;;;;;;4.20;1.77;;;25.70;99.90;;;;;;5072647;28;20466;-75
2022/06/05 12:28:44;;;;;;;3.22;1.90;;;25.50;99.90;;;;;;5076404;28;20091;-70
2022/06/05 12:31:21;;;;;;;5.93;1.60;;;25.40;99.90;;;;;;5069676;28;20036;-71
2022/06/05 12:34:02;;;;;;;6.57;1.73;;;25.60;99.90;;;;;;5058836;28;20127;-72
2022/06/05 12:36:41;;;;;;;6.53;2.10;;;25.50;99.90;;;;;;5059650;28;20082;-73
2022/06/05 12:39:15;;;;;;;7.85;2.28;;;25.30;99.90;;;;;;5062190;28;20113;-73
2022/06/05 12:41:46;;;;;;;5.45;1.70;;;25.10;99.90;;;;;;5060019;28;20104;-73
2022/06/05 12:44:22;;;;;;;7.45;2.10;;;24.90;99.90;;;;;;5061052;28;20967;-73
2022/06/05 12:46:58;;;;;;;4.15;2.17;;;24.90;99.90;;;;;;5062060;28;20039;-71
2022/06/05 12:49:41;;;;;;;4.93;1.65;;;25.00;99.90;;;;;;5058650;28;20393;-72
2022/06/05 12:52:38;;;;;;;5.10;2.15;;;25.40;99.90;;;;;;5055667;28;20116;-72
2022/06/05 12:55:18;;;;;;;5.53;2.58;;;25.70;99.90;;;;;;5065925;28;20062;-73
2022/06/05 12:57:46;;;;;;;5.63;2.25;;;25.90;99.90;;;;;;5066269;28;20025;-71
2022/06/05 13:00:22;;;;;;;5.07;2.30;;;25.90;99.90;;;;;;5069959;28;20082;-72
2022/06/05 13:03:01;;;;;;;4.72;2.20;;;26.00;99.90;;;;;;5064194;28;20037;-73
2022/06/05 13:05:35;;;;;;;9.82;2.28;;;25.90;99.90;;;;;;5071451;28;20078;-73
2022/06/05 13:08:10;;;;;;;8.70;2.00;;;25.80;99.90;;;;;;5071448;28;20056;-72
2022/06/05 13:10:56;;;;;;;6.25;4.20;;;25.80;99.90;;;;;;5071087;28;20420;-71
2022/06/05 13:13:42;;;;;;;4.15;2.13;;;26.10;99.90;;;;;;5069043;28;20528;-71
2022/06/05 13:16:34;;;;;;;5.80;2.47;;;26.20;99.90;;;;;;5072631;28;20032;-72
2022/06/05 13:19:34;;;;;;;4.97;2.10;;;26.00;99.90;;;;;;5054656;28;20111;-72
2022/06/05 13:22:09;;;;;;;7.53;2.50;;;25.90;99.90;;;;;;5072578;28;20032;-77
2022/06/05 13:24:53;;;;;;;4.57;1.80;;;25.70;99.90;;;;;;5073122;28;20036;-74
2022/06/05 13:27:31;;;;;;;4.97;2.50;;;25.50;99.90;;;;;;5069563;28;20020;-80
2022/06/05 13:30:06;;;;;;;5.75;2.22;;;25.20;99.90;;;;;;5072869;28;20052;-75
2022/06/05 13:32:49;;;;;;;9.27;2.60;;;25.10;99.90;;;;;;5073471;28;20029;-83